createdAt,value
2017-11-04T00:00:03.564Z,19.57
2017-11-04T00:02:31.062Z,19.40
2017-11-04T00:04:58.544Z,18.60
2017-11-04T00:07:26.011Z,19.73
2017-11-04T00:09:53.482Z,19.10
2017-11-04T00:12:20.952Z,19.83
2017-11-04T00:14:48.424Z,19.00
2017-11-04T00:17:15.924Z,19.83
2017-11-04T00:19:43.392Z,17.93
2017-11-04T00:22:10.873Z,18.40
2017-11-04T00:24:38.402Z,17.73
2017-11-04T00:27:05.932Z,19.00
2017-11-04T00:29:33.408Z,18.23
2017-11-04T00:32:00.918Z,18.13
2017-11-04T00:34:28.402Z,19.23
2017-11-04T00:36:55.912Z,18.30
2017-11-04T00:39:23.571Z,18.30
2017-11-04T00:41:51.029Z,18.17
2017-11-04T00:44:18.504Z,18.60
2017-11-04T00:46:45.999Z,18.00
2017-11-04T00:49:13.456Z,17.87
2017-11-04T00:51:40.963Z,18.30
2017-11-04T00:54:08.426Z,17.60
2017-11-04T00:56:35.951Z,18.00
2017-11-04T00:59:04.271Z,17.90
2017-11-04T01:01:31.745Z,18.00
2017-11-04T01:03:59.196Z,17.97
2017-11-04T01:06:26.707Z,18.77
2017-11-04T01:08:54.203Z,17.23
2017-11-04T01:11:21.713Z,17.83
2017-11-04T01:13:49.179Z,18.77
2017-11-04T01:16:16.649Z,18.27
2017-11-04T01:18:44.117Z,17.90
2017-11-04T01:21:11.597Z,18.17
2017-11-04T01:23:39.059Z,17.40
2017-11-04T01:26:06.681Z,17.73
2017-11-04T01:28:34.185Z,17.17
2017-11-04T01:31:01.674Z,18.40
2017-11-04T01:33:29.947Z,16.43
2017-11-04T01:35:57.432Z,18.13
2017-11-04T01:38:24.924Z,17.37
2017-11-04T01:40:52.447Z,17.73
2017-11-04T01:43:19.904Z,17.90
2017-11-04T01:45:47.469Z,18.10
2017-11-04T01:48:14.371Z,18.17
2017-11-04T01:50:42.805Z,17.27
2017-11-04T01:53:17.293Z,16.80
2017-11-04T01:55:44.762Z,17.97
2017-11-04T01:58:12.275Z,17.33
2017-11-04T02:00:39.738Z,16.57
2017-11-04T02:03:07.220Z,17.00
2017-11-04T02:05:34.675Z,17.23
2017-11-04T02:08:02.201Z,17.10
2017-11-04T02:10:29.673Z,16.93
2017-11-04T02:12:57.168Z,18.60
2017-11-04T02:15:24.631Z,17.63
2017-11-04T02:17:52.155Z,17.43
2017-11-04T02:20:19.650Z,18.37
2017-11-04T02:22:47.159Z,18.07
2017-11-04T02:25:14.657Z,17.13
2017-11-04T02:27:42.203Z,18.70
2017-11-04T02:30:09.681Z,17.50
2017-11-04T02:32:37.190Z,18.80
2017-11-04T02:35:04.645Z,17.90
2017-11-04T02:37:32.107Z,18.23
2017-11-04T02:39:59.555Z,17.97
2017-11-04T02:42:27.390Z,17.83
2017-11-04T02:44:54.838Z,17.47
2017-11-04T02:47:22.299Z,16.83
2017-11-04T02:49:49.802Z,16.33
2017-11-04T02:52:17.314Z,18.07
2017-11-04T02:54:44.809Z,18.03
2017-11-04T02:57:12.327Z,18.37
2017-11-04T02:59:39.788Z,18.40
2017-11-04T03:02:07.284Z,18.30
2017-11-04T03:04:34.756Z,18.03
2017-11-04T03:07:02.536Z,17.63
2017-11-04T03:09:31.301Z,18.43
2017-11-04T03:11:58.755Z,17.77
2017-11-04T03:14:26.251Z,17.03
2017-11-04T03:16:53.775Z,18.93
2017-11-04T03:19:21.700Z,18.83
2017-11-04T03:21:55.655Z,18.17
2017-11-04T03:24:24.630Z,17.97
2017-11-04T03:26:52.363Z,18.60
2017-11-04T03:29:19.878Z,17.57
2017-11-04T03:31:47.412Z,18.60
2017-11-04T03:34:14.878Z,18.60
2017-11-04T03:36:42.597Z,16.63
2017-11-04T03:39:10.088Z,17.17
2017-11-04T03:41:37.572Z,17.40
2017-11-04T03:44:05.071Z,17.07
2017-11-04T03:46:32.577Z,17.83
2017-11-04T03:49:00.056Z,17.93
2017-11-04T03:51:27.672Z,18.33
2017-11-04T03:53:55.134Z,17.07
2017-11-04T03:56:22.620Z,19.30
2017-11-04T03:58:50.964Z,17.73
2017-11-04T04:01:19.248Z,17.93
2017-11-04T04:03:46.707Z,18.47
2017-11-04T04:06:14.608Z,16.90
2017-11-04T04:08:42.225Z,17.63
2017-11-04T04:11:09.894Z,18.73
2017-11-04T04:13:38.064Z,18.20
2017-11-04T04:16:05.515Z,18.13
2017-11-04T04:18:33.058Z,17.63
2017-11-04T04:21:00.511Z,17.60
2017-11-04T04:23:28.473Z,17.63
2017-11-04T04:25:55.979Z,18.67
2017-11-04T04:28:23.503Z,17.87
2017-11-04T04:30:50.975Z,17.97
2017-11-04T04:33:18.457Z,17.93
2017-11-04T04:35:45.936Z,18.20
2017-11-04T04:38:13.407Z,19.70
2017-11-04T04:40:40.929Z,18.40
2017-11-04T04:43:08.432Z,17.47
2017-11-04T04:45:35.908Z,18.00
2017-11-04T04:48:03.385Z,17.83
2017-11-04T04:50:30.861Z,17.83
2017-11-04T04:52:58.399Z,18.47
2017-11-04T04:55:25.872Z,18.93
2017-11-04T04:57:53.337Z,17.80
2017-11-04T05:00:20.855Z,16.83
2017-11-04T05:02:48.355Z,17.63
2017-11-04T05:05:16.240Z,18.20
2017-11-04T05:07:43.714Z,16.57
2017-11-04T05:10:11.175Z,18.07
2017-11-04T05:12:38.724Z,19.40
2017-11-04T05:15:06.198Z,18.90
2017-11-04T05:17:33.674Z,18.80
2017-11-04T05:20:01.154Z,18.90
2017-11-04T05:22:28.923Z,16.43
2017-11-04T05:24:56.389Z,17.30
2017-11-04T05:27:23.865Z,18.00
2017-11-04T05:29:51.331Z,17.63
2017-11-04T05:32:18.783Z,18.23
2017-11-04T05:34:46.301Z,17.93
2017-11-04T05:37:13.772Z,17.67
2017-11-04T05:39:41.300Z,18.23
2017-11-04T05:42:08.779Z,17.60
2017-11-04T05:44:36.240Z,17.60
2017-11-04T05:47:03.713Z,16.70
2017-11-04T05:49:31.193Z,17.90
2017-11-04T05:51:59.596Z,18.97
2017-11-04T05:54:27.064Z,17.87
2017-11-04T05:56:54.569Z,16.97
2017-11-04T05:59:22.079Z,18.00
2017-11-04T06:01:49.531Z,16.93
2017-11-04T06:04:18.309Z,16.43
2017-11-04T06:06:45.777Z,18.40
2017-11-04T06:09:13.249Z,17.90
2017-11-04T06:11:40.706Z,17.40
2017-11-04T06:14:08.774Z,15.43
2017-11-04T06:16:36.238Z,17.93
2017-11-04T06:19:03.702Z,16.53
2017-11-04T06:21:31.171Z,17.00
2017-11-04T06:23:58.651Z,17.20
2017-11-04T06:26:26.137Z,17.77
2017-11-04T06:28:58.644Z,18.13
2017-11-04T06:31:26.238Z,17.83
2017-11-04T06:33:53.736Z,18.07
2017-11-04T06:36:21.298Z,16.70
2017-11-04T06:38:48.796Z,18.23
2017-11-04T06:41:16.321Z,18.17
2017-11-04T06:43:43.909Z,18.40
2017-11-04T06:46:11.435Z,17.53
2017-11-04T06:48:40.731Z,14.63
2017-11-04T06:51:08.347Z,17.97
2017-11-04T06:53:36.746Z,17.63
2017-11-04T06:56:04.269Z,19.13
2017-11-04T06:58:31.795Z,17.97
2017-11-04T07:00:59.329Z,16.10
2017-11-04T07:03:26.871Z,18.97
2017-11-04T07:05:54.407Z,17.47
2017-11-04T07:08:21.884Z,18.40
2017-11-04T07:10:49.428Z,18.00
2017-11-04T07:13:16.985Z,18.47
2017-11-04T07:15:44.444Z,19.57
2017-11-04T07:18:11.902Z,17.67
2017-11-04T07:20:39.472Z,18.63
2017-11-04T07:23:06.963Z,17.50
2017-11-04T07:25:34.452Z,18.90
2017-11-04T07:28:01.936Z,18.10
2017-11-04T07:30:29.412Z,19.10
2017-11-04T07:32:56.934Z,19.30
2017-11-04T07:35:24.808Z,18.87
2017-11-04T07:37:52.294Z,18.57
2017-11-04T07:40:19.762Z,18.73
2017-11-04T07:42:48.221Z,18.43
2017-11-04T07:45:15.724Z,19.47
2017-11-04T07:47:43.244Z,18.63
2017-11-04T07:50:10.739Z,19.17
2017-11-04T07:52:38.235Z,20.27
2017-11-04T07:55:05.713Z,20.43
2017-11-04T07:57:33.190Z,20.27
2017-11-04T08:00:00.706Z,19.83
2017-11-04T08:02:28.211Z,20.03
2017-11-04T08:04:55.711Z,19.17
2017-11-04T08:07:23.206Z,20.40
2017-11-04T08:09:50.714Z,18.63
2017-11-04T08:12:18.188Z,20.07
2017-11-04T08:14:45.674Z,18.90
2017-11-04T08:17:13.147Z,18.80
2017-11-04T08:19:41.368Z,20.60
2017-11-04T08:22:08.848Z,19.53
2017-11-04T08:24:36.314Z,20.23
2017-11-04T08:27:03.798Z,18.40
2017-11-04T08:29:31.290Z,19.53
2017-11-04T08:31:58.768Z,20.33
2017-11-04T08:34:26.267Z,19.57
2017-11-04T08:36:56.258Z,19.60
2017-11-04T08:39:23.793Z,20.47
2017-11-04T08:41:51.249Z,21.23
2017-11-04T08:44:18.725Z,21.13
2017-11-04T08:46:46.215Z,21.17
2017-11-04T08:49:13.793Z,18.93
2017-11-04T08:51:41.289Z,22.10
2017-11-04T08:54:08.778Z,21.37
2017-11-04T08:56:36.253Z,21.77
2017-11-04T08:59:03.762Z,19.83
2017-11-04T09:01:31.292Z,20.67
2017-11-04T09:03:58.777Z,20.77
2017-11-04T09:06:26.256Z,21.67
2017-11-04T09:08:54.353Z,19.37
2017-11-04T09:11:21.875Z,19.37
2017-11-04T09:13:49.346Z,21.47
2017-11-04T09:16:16.878Z,19.97
2017-11-04T09:18:44.403Z,19.20
2017-11-04T09:21:18.341Z,18.70
2017-11-04T09:23:45.796Z,20.73
2017-11-04T09:26:13.293Z,19.90
2017-11-04T09:28:40.755Z,19.60
2017-11-04T09:31:08.231Z,19.03
2017-11-04T09:33:35.710Z,19.83
2017-11-04T09:36:03.192Z,20.17
2017-11-04T09:38:30.668Z,18.57
2017-11-04T09:40:58.223Z,19.20
2017-11-04T09:43:25.772Z,20.40
2017-11-04T09:45:53.236Z,20.73
2017-11-04T09:48:20.729Z,20.07
2017-11-04T09:50:48.215Z,19.30
2017-11-04T09:53:15.724Z,17.60
2017-11-04T09:55:43.195Z,19.87
2017-11-04T09:58:11.530Z,19.80
2017-11-04T10:00:39.056Z,19.23
2017-11-04T10:03:06.624Z,19.23
2017-11-04T10:05:34.109Z,19.37
2017-11-04T10:08:01.600Z,19.60
2017-11-04T10:10:29.067Z,19.37
2017-11-04T10:12:56.564Z,19.27
2017-11-04T10:15:24.439Z,18.77
2017-11-04T10:17:51.992Z,18.67
2017-11-04T10:20:19.468Z,19.07
2017-11-04T10:22:46.966Z,18.43
2017-11-04T10:25:14.504Z,17.80
2017-11-04T10:27:42.009Z,18.37
2017-11-04T10:30:09.562Z,18.13
2017-11-04T10:32:37.276Z,18.60
2017-11-04T10:35:04.788Z,17.30
2017-11-04T10:37:32.416Z,16.87
2017-11-04T10:39:59.960Z,17.50
2017-11-04T10:42:39.105Z,16.67
2017-11-04T10:45:07.316Z,17.17
2017-11-04T10:47:35.754Z,16.20
2017-11-04T10:50:05.046Z,16.33
2017-11-04T10:52:32.551Z,16.37
2017-11-04T10:55:00.130Z,16.62
2017-11-04T10:57:27.673Z,15.18
2017-11-04T10:59:55.180Z,16.87
2017-11-04T11:02:22.720Z,15.80
2017-11-04T11:04:50.208Z,15.50
2017-11-04T11:07:17.716Z,15.65
2017-11-04T11:09:45.238Z,15.03
2017-11-04T11:12:12.782Z,14.68
2017-11-04T11:14:40.262Z,14.63
2017-11-04T11:17:07.818Z,15.10
2017-11-04T11:19:35.385Z,15.07
2017-11-04T11:22:02.958Z,14.70
2017-11-04T11:24:30.515Z,15.30
2017-11-04T11:26:58.058Z,14.67
2017-11-04T11:29:25.591Z,15.67
2017-11-04T11:31:53.153Z,15.30
2017-11-04T11:34:20.716Z,15.27
2017-11-04T11:36:48.215Z,15.20
2017-11-04T11:39:15.727Z,16.30
2017-11-04T11:41:43.219Z,15.10
2017-11-04T11:44:10.782Z,15.27
2017-11-04T11:46:38.305Z,15.70
2017-11-04T11:49:05.842Z,14.40
2017-11-04T11:51:33.352Z,15.73
2017-11-04T11:54:00.921Z,16.53
2017-11-04T11:56:28.443Z,16.20
2017-11-04T11:58:55.981Z,15.10
2017-11-04T12:01:23.557Z,15.60
2017-11-04T12:03:51.060Z,16.10
2017-11-04T12:06:18.586Z,15.07
2017-11-04T12:08:46.077Z,15.27
2017-11-04T12:11:13.606Z,15.20
2017-11-04T12:13:41.084Z,16.93
2017-11-04T12:16:08.573Z,15.03
2017-11-04T12:18:36.143Z,15.27
2017-11-04T12:21:03.661Z,14.20
2017-11-04T12:23:31.147Z,14.13
2017-11-04T12:25:58.659Z,15.47
2017-11-04T12:28:26.186Z,15.57
2017-11-04T12:30:53.747Z,14.47
2017-11-04T12:33:21.234Z,14.43
2017-11-04T12:35:48.756Z,13.30
2017-11-04T12:38:16.254Z,14.63
2017-11-04T12:40:43.759Z,14.43
2017-11-04T12:43:11.227Z,13.70
2017-11-04T12:45:38.732Z,13.90
2017-11-04T12:48:06.213Z,13.53
2017-11-04T12:50:33.732Z,13.93
2017-11-04T12:53:01.277Z,13.90
2017-11-04T12:55:28.777Z,12.57
2017-11-04T12:57:56.350Z,12.13
2017-11-04T13:00:23.882Z,12.33
2017-11-04T13:02:51.352Z,12.63
2017-11-04T13:05:18.890Z,11.67
2017-11-04T13:07:46.407Z,13.07
2017-11-04T13:10:14.004Z,12.90
2017-11-04T13:12:41.471Z,12.57
2017-11-04T13:15:08.982Z,13.00
2017-11-04T13:17:36.459Z,12.87
2017-11-04T13:20:03.978Z,12.63
2017-11-04T13:22:31.549Z,13.13
2017-11-04T13:24:59.055Z,12.97
2017-11-04T13:27:26.605Z,11.77
2017-11-04T13:29:54.185Z,11.70
2017-11-04T13:32:21.706Z,12.07
2017-11-04T13:34:49.195Z,12.70
2017-11-04T13:37:16.750Z,12.40
2017-11-04T13:39:44.297Z,11.70
2017-11-04T13:42:11.820Z,12.00
2017-11-04T13:44:39.343Z,11.80
2017-11-04T13:47:06.969Z,12.43
2017-11-04T13:49:34.655Z,12.60
2017-11-04T13:52:02.226Z,12.77
2017-11-04T13:54:29.779Z,12.23
2017-11-04T13:56:57.303Z,12.20
2017-11-04T13:59:24.791Z,11.67
2017-11-04T14:01:52.266Z,11.33
2017-11-04T14:04:19.849Z,12.10
2017-11-04T14:06:47.365Z,12.20
2017-11-04T14:09:14.990Z,12.27
2017-11-04T14:11:42.567Z,11.63
2017-11-04T14:14:10.129Z,11.73
2017-11-04T14:16:37.723Z,10.70
2017-11-04T14:19:05.226Z,10.63
2017-11-04T14:21:32.783Z,10.17
2017-11-04T14:24:00.250Z,11.23
2017-11-04T14:26:27.794Z,9.60
2017-11-04T14:28:55.301Z,9.97
2017-11-04T14:31:23.160Z,9.57
2017-11-04T14:33:51.189Z,10.87
2017-11-04T14:36:18.727Z,11.07
2017-11-04T14:38:46.271Z,10.97
2017-11-04T14:41:13.804Z,10.93
2017-11-04T14:43:41.329Z,11.33
2017-11-04T14:46:08.841Z,11.10
2017-11-04T14:48:36.563Z,10.23
2017-11-04T14:51:04.138Z,10.77
2017-11-04T14:53:31.667Z,10.33
2017-11-04T14:55:59.170Z,10.17
2017-11-04T14:58:26.683Z,10.83
2017-11-04T15:00:54.207Z,10.47
2017-11-04T15:03:21.780Z,10.63
2017-11-04T15:05:49.325Z,11.43
2017-11-04T15:08:16.839Z,10.27
2017-11-04T15:10:44.395Z,10.80
2017-11-04T15:13:13.459Z,10.93
2017-11-04T15:15:41.021Z,11.03
2017-11-04T15:18:08.538Z,11.00
2017-11-04T15:20:36.026Z,10.60
2017-11-04T15:23:03.532Z,10.63
2017-11-04T15:25:31.162Z,10.80
2017-11-04T15:27:58.674Z,11.27
2017-11-04T15:30:35.810Z,11.17
2017-11-04T15:33:03.436Z,11.57
2017-11-04T15:35:31.306Z,11.20
2017-11-04T15:37:58.926Z,10.77
2017-11-04T15:40:26.900Z,11.50
2017-11-04T15:42:54.471Z,11.57
2017-11-04T15:45:21.954Z,12.67
2017-11-04T15:47:49.517Z,11.97
2017-11-04T15:50:17.110Z,11.80
2017-11-04T15:52:44.971Z,11.40
2017-11-04T15:55:12.470Z,12.50
2017-11-04T15:57:40.008Z,12.50
2017-11-04T16:00:07.598Z,11.90
2017-11-04T16:02:35.096Z,11.77
2017-11-04T17:24:32.271Z,16.83
2017-11-04T17:26:59.898Z,16.90
2017-11-04T17:29:27.761Z,17.70
2017-11-04T17:31:55.481Z,16.47
2017-11-04T17:34:23.056Z,16.90
2017-11-04T17:36:50.528Z,17.27
2017-11-04T17:39:18.271Z,18.03
2017-11-04T17:41:45.830Z,17.53
2017-11-04T17:44:17.000Z,18.03
2017-11-04T17:46:44.715Z,18.23
2017-11-04T17:49:12.298Z,16.83
2017-11-04T17:51:41.081Z,17.40
2017-11-04T17:54:08.676Z,18.20
2017-11-04T17:56:36.425Z,17.23
2017-11-04T17:59:15.558Z,17.17
2017-11-04T18:01:46.130Z,18.87
2017-11-04T18:04:14.317Z,19.27
2017-11-04T18:06:41.988Z,17.53
2017-11-04T18:09:09.663Z,17.63
2017-11-04T18:11:37.143Z,17.03
2017-11-04T18:14:04.622Z,18.47
2017-11-04T18:16:32.097Z,17.70
2017-11-04T18:18:59.690Z,17.30
2017-11-04T18:21:27.186Z,19.37
2017-11-04T18:23:54.672Z,18.57
2017-11-04T18:26:22.182Z,18.57
2017-11-04T18:28:49.763Z,19.40
2017-11-04T18:31:17.246Z,18.73
2017-11-04T18:33:44.755Z,18.37
2017-11-04T18:36:12.226Z,19.90
2017-11-04T18:38:40.713Z,19.23
2017-11-04T18:41:08.252Z,19.37
2017-11-04T18:43:35.737Z,20.17
2017-11-04T18:46:03.219Z,19.37
2017-11-04T18:48:30.682Z,19.30
2017-11-04T18:50:58.298Z,20.67
2017-11-04T18:53:25.783Z,19.70
2017-11-04T18:55:53.388Z,19.97
2017-11-04T18:58:20.916Z,19.97
2017-11-04T19:00:48.427Z,20.27
2017-11-04T19:03:15.976Z,19.70
2017-11-04T19:05:44.379Z,20.27
2017-11-04T19:08:12.246Z,20.40
2017-11-04T19:10:40.639Z,20.37
2017-11-04T19:13:08.169Z,20.43
2017-11-04T19:15:36.739Z,21.67
2017-11-04T19:18:04.336Z,20.33
2017-11-04T19:20:36.846Z,19.90
2017-11-04T19:23:05.218Z,20.17
2017-11-04T19:25:35.526Z,19.33
2017-11-04T19:28:03.124Z,21.43
2017-11-04T19:30:30.976Z,21.97
2017-11-04T19:32:58.510Z,21.23
2017-11-04T19:35:32.645Z,20.60
2017-11-04T19:38:00.240Z,21.43
2017-11-04T19:40:27.699Z,20.40
2017-11-04T19:42:55.267Z,21.43
2017-11-04T19:45:25.940Z,22.03
2017-11-04T19:47:53.613Z,20.77
2017-11-04T19:50:21.235Z,21.30
2017-11-04T19:52:49.312Z,21.77
2017-11-04T19:55:16.870Z,21.90
2017-11-04T19:57:46.063Z,21.73
2017-11-04T20:00:13.689Z,21.80
2017-11-04T20:02:41.187Z,21.93
2017-11-04T20:05:08.743Z,21.53
2017-11-04T20:07:36.276Z,19.77
2017-11-04T20:10:03.782Z,21.47
2017-11-04T20:12:31.332Z,21.80
2017-11-04T20:14:58.872Z,20.27
2017-11-04T20:17:26.384Z,20.73
2017-11-04T20:19:53.933Z,21.80
2017-11-04T20:22:21.433Z,22.80
2017-11-04T20:24:54.590Z,21.37
2017-11-04T20:27:22.185Z,22.03
2017-11-04T20:29:50.040Z,22.07
2017-11-04T20:32:17.510Z,20.83
2017-11-04T20:34:44.992Z,21.30
2017-11-04T20:37:12.611Z,20.20
2017-11-04T20:39:40.110Z,21.50
2017-11-04T20:42:07.836Z,21.53
2017-11-04T20:44:35.383Z,21.67
2017-11-04T20:47:02.891Z,21.60
2017-11-04T20:49:32.411Z,21.13
2017-11-04T20:52:04.592Z,22.23
2017-11-04T20:54:37.976Z,21.83
2017-11-04T20:57:06.593Z,23.70
2017-11-04T20:59:34.448Z,21.70
2017-11-04T21:02:02.154Z,22.77
2017-11-04T21:04:29.798Z,21.97
2017-11-04T21:06:57.386Z,22.27
2017-11-04T21:09:24.977Z,23.63
2017-11-04T21:11:52.698Z,23.10
2017-11-04T21:14:21.380Z,23.47
2017-11-04T21:16:48.919Z,23.23
2017-11-04T21:19:16.468Z,23.07
2017-11-04T21:21:45.766Z,22.63
2017-11-04T21:24:14.013Z,23.33
2017-11-04T21:26:41.525Z,23.47
2017-11-04T21:29:09.920Z,22.60
2017-11-04T21:31:37.483Z,23.27
2017-11-04T21:34:05.159Z,22.40
2017-11-04T21:36:32.818Z,22.87
2017-11-04T21:39:00.397Z,22.73
2017-11-04T21:41:27.980Z,23.80
2017-11-04T21:43:55.536Z,24.47
2017-11-04T21:46:23.788Z,23.13
2017-11-04T21:48:51.489Z,23.03
2017-11-04T21:51:19.039Z,22.70
2017-11-04T21:53:46.883Z,23.97
2017-11-04T21:56:14.512Z,23.23
2017-11-04T21:58:42.570Z,22.93
2017-11-04T22:01:10.143Z,24.00
2017-11-04T22:03:37.670Z,23.07
2017-11-04T22:06:05.214Z,24.27
2017-11-04T22:08:32.769Z,23.87
2017-11-04T22:11:00.484Z,24.13
2017-11-04T22:13:28.025Z,23.20
2017-11-04T22:15:55.646Z,24.13
2017-11-04T22:18:23.220Z,24.20
2017-11-04T22:20:50.731Z,24.27
2017-11-04T22:23:18.224Z,23.57
2017-11-04T22:25:45.739Z,23.00
2017-11-04T22:28:14.830Z,24.73
2017-11-04T22:30:44.249Z,23.73
2017-11-04T22:33:11.972Z,24.13
2017-11-04T22:35:39.705Z,23.83
2017-11-04T22:38:09.514Z,23.73
2017-11-04T22:40:37.039Z,24.63
2017-11-04T22:43:04.757Z,22.40
2017-11-04T22:45:32.515Z,24.47
2017-11-04T22:47:59.999Z,23.97
2017-11-04T22:50:27.568Z,25.10
2017-11-04T22:52:55.111Z,23.40
2017-11-04T22:55:25.851Z,25.30
2017-11-04T22:57:54.299Z,26.23
2017-11-04T23:00:22.480Z,25.37
2017-11-04T23:02:50.553Z,25.00
2017-11-04T23:05:18.082Z,24.67
2017-11-04T23:07:45.647Z,25.73
2017-11-04T23:10:13.222Z,25.33
2017-11-04T23:12:40.773Z,25.70
2017-11-04T23:15:08.616Z,25.27
2017-11-04T23:17:36.202Z,24.93
2017-11-04T23:20:04.819Z,27.10
2017-11-04T23:22:32.365Z,25.23
2017-11-04T23:24:59.892Z,25.40
2017-11-04T23:27:27.474Z,24.23
2017-11-04T23:29:54.980Z,24.67
2017-11-04T23:32:22.520Z,23.53
2017-11-04T23:34:50.366Z,26.00
2017-11-04T23:37:17.913Z,25.90
2017-11-04T23:39:45.468Z,26.10
2017-11-04T23:42:12.942Z,25.63
2017-11-04T23:44:40.471Z,27.47
2017-11-04T23:47:07.948Z,25.77
2017-11-04T23:49:35.450Z,26.60
2017-11-04T23:52:02.985Z,26.70
2017-11-04T23:54:30.474Z,24.90
2017-11-04T23:56:57.978Z,26.53
2017-11-04T23:59:25.686Z,25.50
